createdAt,value
2019-05-16T00:02:15.762Z,101255.53
2019-05-16T00:04:48.152Z,101253.38
2019-05-16T00:07:19.388Z,101259.74
2019-05-16T00:09:50.481Z,101259.39
2019-05-16T00:12:21.521Z,101251.24
2019-05-16T00:14:52.382Z,101250.61
2019-05-16T00:17:23.376Z,101253.53
2019-05-16T00:19:54.415Z,101247.56
2019-05-16T00:22:25.364Z,101244.02
2019-05-16T00:24:57.989Z,101247.05
2019-05-16T00:27:28.727Z,101250.98
2019-05-16T00:29:59.579Z,101250.05
2019-05-16T00:32:30.623Z,101237.80
2019-05-16T00:35:01.480Z,101241.16
2019-05-16T00:37:32.353Z,101233.20
2019-05-16T00:40:03.518Z,101237.82
2019-05-16T00:42:34.167Z,101234.09
2019-05-16T00:45:09.219Z,101234.34
2019-05-16T00:47:40.173Z,101239.09
2019-05-16T00:50:11.422Z,101228.84
2019-05-16T00:52:42.601Z,101231.17
2019-05-16T00:55:14.582Z,101222.88
2019-05-16T00:57:48.197Z,101228.62
2019-05-16T01:00:21.701Z,101227.59
2019-05-16T01:02:52.570Z,101220.61
2019-05-16T01:05:23.632Z,101224.80
2019-05-16T01:07:54.590Z,101227.75
2019-05-16T01:10:25.532Z,101231.36
2019-05-16T01:12:58.413Z,101236.66
2019-05-16T01:15:28.855Z,101234.21
2019-05-16T01:17:59.940Z,101232.91
2019-05-16T01:20:31.017Z,101237.52
2019-05-16T01:23:02.079Z,101235.83
2019-05-16T01:25:33.036Z,101242.30
2019-05-16T01:28:03.876Z,101240.87
2019-05-16T01:30:34.957Z,101244.83
2019-05-16T01:33:08.656Z,101242.03
2019-05-16T01:35:38.709Z,101241.76
2019-05-16T01:38:09.568Z,101236.08
2019-05-16T01:40:40.510Z,101235.46
2019-05-16T01:43:11.467Z,101237.36
2019-05-16T01:45:42.340Z,101240.83
2019-05-16T01:48:14.850Z,101242.89
2019-05-16T01:50:47.940Z,101245.17
2019-05-16T01:53:18.132Z,101242.63
2019-05-16T01:55:49.550Z,101241.86
2019-05-16T01:58:20.503Z,101238.41
2019-05-16T02:01:03.258Z,101240.84
2019-05-16T02:03:23.859Z,101246.28
2019-05-16T02:05:54.915Z,101243.11
2019-05-16T02:08:25.858Z,101238.93
2019-05-16T02:10:58.406Z,101241.70
2019-05-16T02:13:29.841Z,101241.19
2019-05-16T02:16:00.897Z,101245.73
2019-05-16T02:18:31.857Z,101244.09
2019-05-16T02:21:02.698Z,101245.05
2019-05-16T02:23:33.773Z,101249.84
2019-05-16T02:26:04.733Z,101240.59
2019-05-16T02:28:40.120Z,101245.73
2019-05-16T02:31:11.959Z,101242.42
2019-05-16T02:33:40.777Z,101241.57
2019-05-16T02:36:11.840Z,101247.17
2019-05-16T02:38:42.697Z,101236.75
2019-05-16T02:41:13.855Z,101244.61
2019-05-16T02:43:44.496Z,101245.38
2019-05-16T02:46:15.245Z,101242.38
2019-05-16T02:48:46.424Z,101245.21
2019-05-16T02:51:17.076Z,101247.00
2019-05-16T02:53:50.889Z,101250.61
2019-05-16T02:56:21.587Z,101247.67
2019-05-16T02:58:52.716Z,101244.76
2019-05-16T03:01:23.569Z,101246.86
2019-05-16T03:03:54.635Z,101246.28
2019-05-16T03:06:27.297Z,101241.70
2019-05-16T03:09:01.846Z,101241.80
2019-05-16T03:11:32.210Z,101241.69
2019-05-16T03:14:05.313Z,101245.02
2019-05-16T03:16:41.550Z,101239.31
2019-05-16T03:19:13.573Z,101243.67
2019-05-16T03:21:45.046Z,101242.77
2019-05-16T03:24:16.109Z,101248.16
2019-05-16T03:26:46.943Z,101247.08
2019-05-16T03:29:17.817Z,101252.48
2019-05-16T03:31:53.662Z,101249.52
2019-05-16T03:34:25.312Z,101254.13
2019-05-16T03:36:54.895Z,101260.61
2019-05-16T03:39:25.824Z,101254.69
2019-05-16T03:41:56.809Z,101258.92
2019-05-16T03:44:31.468Z,101263.80
2019-05-16T03:47:01.132Z,101260.89
2019-05-16T03:49:31.810Z,101261.64
2019-05-16T03:52:02.804Z,101269.66
2019-05-16T03:54:33.843Z,101254.97
2019-05-16T03:57:04.689Z,101263.28
2019-05-16T03:59:35.554Z,101266.28
2019-05-16T04:02:06.624Z,101258.50
2019-05-16T04:04:37.567Z,101263.89
2019-05-16T04:07:11.014Z,101263.50
2019-05-16T04:09:41.470Z,101259.80
2019-05-16T04:12:12.377Z,101262.08
2019-05-16T04:14:43.437Z,101260.67
2019-05-16T04:17:14.314Z,101261.47
2019-05-16T04:19:45.271Z,101261.56
2019-05-16T04:22:16.122Z,101257.55
2019-05-16T04:24:47.166Z,101258.89
2019-05-16T04:27:21.209Z,101256.63
2019-05-16T04:29:51.360Z,101266.15
2019-05-16T04:32:22.415Z,101261.88
2019-05-16T04:34:53.453Z,101261.92
2019-05-16T04:37:26.371Z,101265.05
2019-05-16T04:39:57.258Z,101265.02
2019-05-16T04:42:30.766Z,101260.37
2019-05-16T04:45:01.052Z,101252.02
2019-05-16T04:47:32.237Z,101251.37
2019-05-16T04:50:03.301Z,101253.87
2019-05-16T04:52:34.154Z,101257.08
2019-05-16T04:55:07.059Z,101245.72
2019-05-16T04:57:41.977Z,101248.08
2019-05-16T05:00:11.774Z,101249.76
2019-05-16T05:02:42.908Z,101250.45
2019-05-16T05:05:14.145Z,101243.40
2019-05-16T05:07:45.034Z,101246.21
2019-05-16T05:10:16.288Z,101243.64
2019-05-16T05:12:46.853Z,101244.95
2019-05-16T05:15:21.043Z,101237.13
2019-05-16T05:17:50.799Z,101237.58
2019-05-16T05:20:21.560Z,101228.84
2019-05-16T05:22:52.403Z,101233.21
2019-05-16T05:25:23.483Z,101230.55
2019-05-16T05:27:55.976Z,101240.70
2019-05-16T05:30:54.341Z,101245.80
2019-05-16T05:33:25.404Z,101236.22
2019-05-16T05:35:56.369Z,101237.14
2019-05-16T05:38:27.298Z,101236.82
2019-05-16T05:41:00.205Z,101237.89
2019-05-16T05:43:30.749Z,101245.61
2019-05-16T05:46:01.834Z,101238.09
2019-05-16T05:48:32.788Z,101234.83
2019-05-16T05:51:03.850Z,101239.16
2019-05-16T05:53:34.687Z,101237.75
2019-05-16T05:56:05.646Z,101234.73
2019-05-16T05:58:37.748Z,101238.91
2019-05-16T06:01:11.192Z,101229.85
2019-05-16T06:03:40.991Z,101229.85
2019-05-16T06:06:11.952Z,101229.50
2019-05-16T06:08:43.012Z,101224.33
2019-05-16T06:11:14.069Z,101223.27
2019-05-16T06:13:44.927Z,101224.95
2019-05-16T06:16:16.000Z,101221.05
2019-05-16T06:18:46.946Z,101227.69
2019-05-16T06:21:20.276Z,101226.23
2019-05-16T06:23:51.062Z,101223.08
2019-05-16T06:26:21.871Z,101221.59
2019-05-16T06:28:52.723Z,101220.77
2019-05-16T06:31:23.459Z,101228.44
2019-05-16T06:33:54.541Z,101219.40
2019-05-16T06:36:25.376Z,101225.47
2019-05-16T06:38:56.336Z,101225.48
2019-05-16T06:41:27.190Z,101218.70
2019-05-16T06:43:59.948Z,101225.60
2019-05-16T06:46:30.779Z,101216.53
2019-05-16T06:49:01.823Z,101222.80
2019-05-16T06:51:32.766Z,101222.90
2019-05-16T06:54:03.640Z,101228.09
2019-05-16T06:56:34.695Z,101223.95
2019-05-16T06:59:06.660Z,101232.30
2019-05-16T07:01:40.007Z,101229.56
2019-05-16T07:04:10.591Z,101225.39
2019-05-16T07:06:54.737Z,101226.21
2019-05-16T07:09:13.887Z,101238.33
2019-05-16T07:11:45.051Z,101238.33
2019-05-16T07:14:15.741Z,101240.04
2019-05-16T07:16:49.742Z,101242.21
2019-05-16T07:19:20.830Z,101242.60
2019-05-16T07:21:51.952Z,101252.37
2019-05-16T07:24:23.021Z,101244.59
2019-05-16T07:26:53.870Z,101249.56
2019-05-16T07:29:26.362Z,101248.80
2019-05-16T07:32:01.843Z,101236.89
2019-05-16T07:34:33.186Z,101242.66
2019-05-16T07:37:04.351Z,101245.23
2019-05-16T07:39:39.306Z,101238.34
2019-05-16T07:42:16.527Z,101229.87
2019-05-16T07:44:50.622Z,101229.87
2019-05-16T07:47:23.422Z,101231.42
2019-05-16T07:50:01.419Z,101215.79
2019-05-16T07:52:36.452Z,101216.98
2019-05-16T07:55:06.123Z,101226.59
2019-05-16T07:57:47.401Z,101224.39
2019-05-16T08:00:45.873Z,101227.62
2019-05-16T08:05:41.946Z,101220.66
2019-05-16T08:08:13.024Z,101223.97
2019-05-16T08:10:46.715Z,101228.20
2019-05-16T08:13:17.697Z,101232.86
2019-05-16T08:15:50.286Z,101221.57
2019-05-16T08:18:21.775Z,101213.86
2019-05-16T08:20:52.946Z,101213.86
2019-05-16T08:23:24.198Z,101215.92
2019-05-16T08:25:55.036Z,101216.55
2019-05-16T08:28:25.916Z,101213.59
2019-05-16T08:30:56.849Z,101214.11
2019-05-16T08:33:27.824Z,101219.05
2019-05-16T08:36:02.931Z,101216.72
2019-05-16T08:38:31.488Z,101205.58
2019-05-16T08:41:10.981Z,101200.52
2019-05-16T08:43:34.810Z,101202.16
2019-05-16T08:46:05.990Z,101200.59
2019-05-16T08:48:36.953Z,101194.50
2019-05-16T08:51:08.122Z,101197.42
2019-05-16T08:53:43.467Z,101200.52
2019-05-16T08:56:22.130Z,101190.60
2019-05-16T08:58:54.980Z,101190.52
2019-05-16T09:01:27.084Z,101191.38
2019-05-16T09:04:04.545Z,101186.16
2019-05-16T09:06:52.491Z,101179.87
2019-05-16T09:09:42.637Z,101182.19
2019-05-16T09:12:07.933Z,101182.19
2019-05-16T09:14:41.354Z,101185.67
2019-05-16T09:17:12.220Z,101181.44
2019-05-16T09:19:43.270Z,101178.58
2019-05-16T09:22:17.978Z,101185.23
2019-05-16T09:24:48.568Z,101174.11
2019-05-16T09:27:19.524Z,101176.38
2019-05-16T09:29:50.580Z,101175.02
2019-05-16T09:32:21.989Z,101172.06
2019-05-16T09:34:59.554Z,101165.20
2019-05-16T09:37:30.219Z,101164.20
2019-05-16T09:40:12.755Z,101177.11
2019-05-16T09:42:52.773Z,101160.86
2019-05-16T09:45:27.476Z,101161.20
2019-05-16T09:47:59.820Z,101165.37
2019-05-16T09:50:30.980Z,101160.38
2019-05-16T09:53:01.528Z,101158.44
2019-05-16T09:55:32.484Z,101151.48
2019-05-16T09:58:07.107Z,101153.34
2019-05-16T10:00:37.539Z,101157.24
2019-05-16T10:03:14.084Z,101148.70
2019-05-16T10:05:46.694Z,101147.64
2019-05-16T10:08:23.543Z,101141.89
2019-05-16T10:13:47.087Z,101132.37
2019-05-16T10:16:20.758Z,101141.84
2019-05-16T10:18:51.491Z,101138.94
2019-05-16T10:21:22.452Z,101125.13
2019-05-16T10:23:53.431Z,101132.53
2019-05-16T10:26:27.460Z,101131.80
2019-05-16T10:28:57.780Z,101139.78
2019-05-16T10:31:41.502Z,101133.00
2019-05-16T10:34:01.025Z,101133.27
2019-05-16T10:36:32.120Z,101123.86
2019-05-16T10:39:03.472Z,101125.48
2019-05-16T10:41:34.025Z,101118.83
2019-05-16T10:44:06.251Z,101119.65
2019-05-16T10:46:37.623Z,101128.98
2019-05-16T10:49:08.544Z,101120.77
2019-05-16T10:51:39.397Z,101131.90
2019-05-16T10:54:13.956Z,101118.58
2019-05-16T10:56:46.986Z,101119.59
2019-05-16T11:01:51.797Z,101118.51
2019-05-16T11:04:33.474Z,101119.44
2019-05-16T11:06:57.212Z,101112.70
2019-05-16T11:09:28.065Z,101105.11
2019-05-16T11:11:59.124Z,101105.63
2019-05-16T11:14:31.602Z,101102.61
2019-05-16T11:17:02.679Z,101106.44
2019-05-16T11:19:33.640Z,101084.48
2019-05-16T11:22:04.479Z,101106.41
2019-05-16T11:24:37.779Z,101100.25
2019-05-16T11:27:07.926Z,101099.92
2019-05-16T11:29:39.003Z,101089.86
2019-05-16T11:32:09.963Z,101090.61
2019-05-16T11:34:40.804Z,101090.84
2019-05-16T11:37:11.882Z,101092.03
2019-05-16T11:39:42.839Z,101087.41
2019-05-16T11:42:13.901Z,101088.35
2019-05-16T11:44:47.612Z,101086.91
2019-05-16T11:47:17.062Z,101088.00
2019-05-16T11:49:47.884Z,101086.91
2019-05-16T11:52:18.740Z,101070.29
2019-05-16T11:54:49.614Z,101070.18
2019-05-16T11:57:20.674Z,101068.63
2019-05-16T11:59:51.629Z,101052.98
2019-05-16T12:02:23.713Z,101068.69
2019-05-16T12:04:57.748Z,101055.91
2019-05-16T12:07:33.243Z,101056.88
2019-05-16T12:09:59.499Z,101063.70
2019-05-16T12:12:30.395Z,101048.78
2019-05-16T12:15:01.369Z,101048.43
2019-05-16T12:17:32.311Z,101048.33
2019-05-16T12:20:03.392Z,101047.45
2019-05-16T12:22:34.230Z,101037.99
2019-05-16T12:25:08.209Z,101043.50
2019-05-16T12:27:42.213Z,101036.20
2019-05-16T12:30:13.596Z,101042.95
2019-05-16T12:32:47.898Z,101038.38
2019-05-16T12:35:19.103Z,101032.05
2019-05-16T12:37:51.898Z,101041.09
2019-05-16T12:40:22.510Z,101038.55
2019-05-16T12:42:54.409Z,101039.52
2019-05-16T12:45:27.540Z,101034.91
2019-05-16T12:47:58.250Z,101035.59
2019-05-16T12:50:29.214Z,101022.56
2019-05-16T12:53:00.046Z,101015.73
2019-05-16T12:55:31.126Z,101021.06
2019-05-16T12:58:13.586Z,101016.87
2019-05-16T13:00:44.032Z,101019.27
2019-05-16T13:03:15.661Z,101015.05
2019-05-16T13:05:47.792Z,101010.47
2019-05-16T13:08:27.014Z,100998.92
2019-05-16T13:10:58.018Z,101008.73
2019-05-16T13:13:28.986Z,101000.86
2019-05-16T13:16:00.092Z,101000.73
2019-05-16T13:18:31.028Z,101004.26
2019-05-16T13:21:01.969Z,100997.59
2019-05-16T13:23:32.738Z,100995.98
2019-05-16T13:26:03.973Z,100992.24
2019-05-16T13:28:34.535Z,100989.59
2019-05-16T13:31:08.869Z,100986.37
2019-05-16T13:33:39.437Z,100987.34
2019-05-16T13:36:10.508Z,100983.69
2019-05-16T13:38:41.346Z,100980.09
2019-05-16T13:41:12.209Z,100984.12
2019-05-16T13:43:43.272Z,100978.63
2019-05-16T13:46:14.238Z,100976.55
2019-05-16T13:48:45.285Z,100977.61
2019-05-16T13:51:18.981Z,100976.82
2019-05-16T13:53:48.516Z,100973.16
2019-05-16T13:56:19.617Z,100982.53
2019-05-16T13:58:50.438Z,100978.49
2019-05-16T14:01:22.247Z,100976.45
2019-05-16T14:03:53.269Z,100974.08
2019-05-16T14:06:24.334Z,100967.88
2019-05-16T14:08:56.768Z,100967.84
2019-05-16T14:11:27.697Z,100971.63
2019-05-16T14:13:58.537Z,100962.71
2019-05-16T14:16:29.609Z,100964.84
2019-05-16T14:19:00.672Z,100963.66
2019-05-16T14:21:31.630Z,100963.56
2019-05-16T14:24:02.469Z,100955.24
2019-05-16T14:26:33.555Z,100962.94
2019-05-16T14:29:04.739Z,100958.33
2019-05-16T14:31:37.726Z,100963.80
2019-05-16T14:34:08.162Z,100960.81
2019-05-16T14:36:39.223Z,100959.13
2019-05-16T14:39:10.183Z,100960.05
2019-05-16T14:41:41.036Z,100963.90
2019-05-16T14:44:12.204Z,100964.86
2019-05-16T14:46:42.733Z,100957.55
2019-05-16T14:49:13.491Z,100957.41
2019-05-16T14:51:47.582Z,100962.53
2019-05-16T14:54:18.795Z,100963.48
2019-05-16T14:56:49.965Z,100963.20
2019-05-16T14:59:21.000Z,100960.52
2019-05-16T15:01:52.810Z,100959.06
2019-05-16T15:04:29.810Z,100955.72
2019-05-16T15:06:57.392Z,100953.65
2019-05-16T15:09:28.230Z,100956.89
2019-05-16T15:11:58.984Z,100962.30
2019-05-16T15:14:29.922Z,100954.83
2019-05-16T15:17:00.778Z,100961.31
2019-05-16T15:19:31.686Z,100959.32
2019-05-16T15:22:02.763Z,100961.73
2019-05-16T15:24:33.787Z,100961.31
2019-05-16T15:27:07.902Z,100957.47
2019-05-16T15:29:37.828Z,100964.88
2019-05-16T15:32:09.002Z,100956.92
2019-05-16T15:34:39.960Z,100960.50
2019-05-16T15:37:11.022Z,100969.09
2019-05-16T15:39:41.979Z,100959.58
2019-05-16T15:42:13.039Z,100967.30
2019-05-16T15:44:43.877Z,100968.92
2019-05-16T15:47:17.430Z,100963.04
2019-05-16T15:49:47.922Z,100968.13
2019-05-16T15:52:19.205Z,100965.47
2019-05-16T15:54:50.899Z,100963.03
2019-05-16T15:57:21.533Z,100962.41
2019-05-16T15:59:52.515Z,100963.45
2019-05-16T16:02:23.448Z,100964.62
2019-05-16T16:04:57.558Z,100958.94
2019-05-16T16:07:27.928Z,100965.55
2019-05-16T16:09:58.680Z,100975.38
2019-05-16T16:12:29.761Z,100969.83
2019-05-16T16:15:00.606Z,100965.02
2019-05-16T16:17:31.553Z,100970.31
2019-05-16T16:20:02.587Z,100971.98
2019-05-16T16:22:33.695Z,100977.59
2019-05-16T16:25:06.861Z,100980.88
2019-05-16T16:27:38.062Z,100980.44
2019-05-16T16:30:09.313Z,100980.37
2019-05-16T16:32:40.085Z,100980.80
2019-05-16T16:35:14.013Z,100984.53
2019-05-16T16:37:46.955Z,100977.86
2019-05-16T16:40:18.393Z,100980.70
2019-05-16T16:42:49.033Z,100987.88
2019-05-16T16:45:20.418Z,100992.58
2019-05-16T16:47:52.993Z,100985.61
2019-05-16T16:50:26.566Z,100983.69
2019-05-16T16:52:57.261Z,100988.92
2019-05-16T16:55:28.424Z,100989.80
2019-05-16T16:58:02.450Z,100993.20
2019-05-16T17:00:33.390Z,100993.20
2019-05-16T17:03:07.201Z,100994.64
2019-05-16T17:05:37.316Z,100991.73
2019-05-16T17:08:08.415Z,101008.17
2019-05-16T17:10:39.494Z,100988.72
2019-05-16T17:13:11.842Z,100996.23
2019-05-16T17:15:42.432Z,100991.53
2019-05-16T17:18:13.495Z,101003.30
2019-05-16T17:20:44.331Z,100999.49
2019-05-16T17:23:17.122Z,100996.13
2019-05-16T17:25:47.495Z,100996.70
2019-05-16T17:28:18.458Z,101001.72
2019-05-16T17:30:49.309Z,101001.12
2019-05-16T17:33:20.373Z,100994.88
2019-05-16T17:35:51.215Z,100998.55
2019-05-16T17:38:21.964Z,101003.72
2019-05-16T17:40:53.041Z,101001.70
2019-05-16T17:43:23.998Z,101000.80
2019-05-16T17:45:57.302Z,101006.61
2019-05-16T17:48:29.936Z,101004.13
2019-05-16T17:51:00.664Z,101006.17
2019-05-16T17:53:31.497Z,101005.52
2019-05-16T17:56:06.871Z,101005.33
2019-05-16T17:58:37.831Z,101010.50
2019-05-16T18:01:09.725Z,101014.62
2019-05-16T18:03:40.663Z,101011.71
2019-05-16T18:06:12.628Z,101021.57
2019-05-16T18:08:46.651Z,101020.45
2019-05-16T18:11:18.667Z,101015.69
2019-05-16T18:13:50.122Z,101012.42
2019-05-16T18:16:21.185Z,101015.91
2019-05-16T18:18:52.042Z,101012.57
2019-05-16T18:21:24.515Z,101015.06
2019-05-16T18:23:55.448Z,101017.08
2019-05-16T18:26:28.993Z,101016.05
2019-05-16T18:28:59.557Z,101017.89
2019-05-16T18:31:32.286Z,101025.18
2019-05-16T18:34:03.316Z,101024.40
2019-05-16T18:36:34.375Z,101028.00
2019-05-16T18:39:11.044Z,101030.36
2019-05-16T18:41:43.538Z,101031.27
2019-05-16T18:44:17.782Z,101025.28
2019-05-16T18:47:03.958Z,101025.38
2019-05-16T18:49:24.107Z,101029.33
2019-05-16T18:51:56.928Z,101025.38
2019-05-16T18:54:30.724Z,101026.19
2019-05-16T18:57:01.670Z,101024.87
2019-05-16T18:59:36.909Z,101027.03
2019-05-16T19:02:10.209Z,101027.37
2019-05-16T19:04:40.266Z,101033.53
2019-05-16T19:07:17.613Z,101034.75
2019-05-16T19:09:50.078Z,101031.30
2019-05-16T19:12:23.401Z,101030.59
2019-05-16T19:14:57.185Z,101038.56
2019-05-16T19:17:28.457Z,101039.33
2019-05-16T19:19:59.332Z,101038.42
2019-05-16T19:22:30.378Z,101040.58
2019-05-16T19:25:01.558Z,101034.61
2019-05-16T19:27:37.039Z,101028.98
2019-05-16T19:30:09.405Z,101037.36
2019-05-16T19:32:40.464Z,101040.37
2019-05-16T19:35:13.427Z,101034.09
2019-05-16T19:37:44.311Z,101029.77
2019-05-16T19:40:17.327Z,101035.02
2019-05-16T19:42:48.079Z,101032.88
2019-05-16T19:45:19.531Z,101037.86
2019-05-16T19:47:50.493Z,101032.52
2019-05-16T19:50:23.775Z,101032.88
2019-05-16T19:52:57.536Z,101026.49
2019-05-16T19:55:28.380Z,101023.58
2019-05-16T19:57:59.250Z,101030.72
2019-05-16T20:00:31.967Z,101022.08
2019-05-16T20:03:07.696Z,101024.59
2019-05-16T20:05:38.593Z,101021.42
2019-05-16T20:08:09.527Z,101026.69
2019-05-16T20:10:49.691Z,101023.77
2019-05-16T20:13:20.942Z,101019.70
2019-05-16T20:15:51.819Z,101020.36
2019-05-16T20:18:22.872Z,101032.47
2019-05-16T20:20:56.755Z,101030.35
2019-05-16T20:23:27.827Z,101024.63
2019-05-16T20:25:58.918Z,101027.42
2019-05-16T20:28:29.765Z,101032.67
2019-05-16T20:31:00.843Z,101026.66
2019-05-16T20:33:31.897Z,101034.17
2019-05-16T20:36:02.836Z,101036.52
2019-05-16T20:38:33.916Z,101036.62
2019-05-16T20:41:07.602Z,101036.41
2019-05-16T20:43:37.860Z,101032.29
2019-05-16T20:46:08.942Z,101044.66
2019-05-16T20:49:07.779Z,101042.80
2019-05-16T20:51:38.994Z,101047.47
2019-05-16T20:54:09.724Z,101046.54
2019-05-16T20:56:40.252Z,101048.50
2019-05-16T20:59:11.052Z,101049.59
2019-05-16T21:01:41.965Z,101052.96
2019-05-16T21:04:12.687Z,101051.62
2019-05-16T21:06:56.772Z,101049.63
2019-05-16T21:09:17.012Z,101048.01
2019-05-16T21:11:50.118Z,101059.53
2019-05-16T21:14:20.360Z,101058.44
2019-05-16T21:16:51.196Z,101062.08
2019-05-16T21:19:22.053Z,101062.45
2019-05-16T21:21:52.910Z,101060.19
2019-05-16T21:24:23.764Z,101063.41
2019-05-16T21:26:54.696Z,101067.11
2019-05-16T21:29:27.628Z,101076.47
2019-05-16T21:31:58.174Z,101070.73
2019-05-16T21:34:28.924Z,101069.70
2019-05-16T21:37:11.226Z,101060.45
2019-05-16T21:39:32.175Z,101054.50
2019-05-16T21:42:03.150Z,101052.23
2019-05-16T21:44:33.781Z,101061.05
2019-05-16T21:47:04.845Z,101053.09
2019-05-16T21:49:36.980Z,101063.04
2019-05-16T21:52:08.076Z,101063.84
2019-05-16T21:54:38.890Z,101056.66
2019-05-16T21:57:09.787Z,101053.59
2019-05-16T21:59:40.700Z,101044.39
2019-05-16T22:02:11.824Z,101040.78
2019-05-16T22:04:42.679Z,101045.64
2019-05-16T22:07:13.739Z,101046.45
2019-05-16T22:09:46.589Z,101048.56
2019-05-16T22:12:17.518Z,101043.27
2019-05-16T22:14:52.815Z,101036.77
2019-05-16T22:17:23.308Z,101032.89
2019-05-16T22:19:56.251Z,101030.63
2019-05-16T22:22:29.825Z,101031.58
2019-05-16T22:24:58.974Z,101027.78
2019-05-16T22:27:29.998Z,101026.42
2019-05-16T22:30:00.897Z,101030.33
2019-05-16T22:32:31.918Z,101029.88
2019-05-16T22:35:02.569Z,101026.25
2019-05-16T22:37:46.156Z,101026.77
2019-05-16T22:40:09.085Z,101027.66
2019-05-16T22:42:39.534Z,101037.94
2019-05-16T22:45:12.197Z,101038.61
2019-05-16T22:47:42.777Z,101032.39
2019-05-16T22:50:17.652Z,101038.55
2019-05-16T22:52:47.659Z,101039.38
2019-05-16T22:55:18.975Z,101043.98
2019-05-16T22:57:49.885Z,101036.25
2019-05-16T23:00:22.889Z,101043.45
2019-05-16T23:02:53.834Z,101037.00
2019-05-16T23:05:27.230Z,101030.84
2019-05-16T23:08:04.963Z,101030.25
2019-05-16T23:10:30.198Z,101031.03
2019-05-16T23:13:00.852Z,101027.66
2019-05-16T23:15:31.604Z,101029.38
2019-05-16T23:18:02.666Z,101019.94
2019-05-16T23:20:33.565Z,101016.72
2019-05-16T23:23:06.898Z,101014.16
2019-05-16T23:25:37.257Z,101012.94
2019-05-16T23:28:08.034Z,101015.55
2019-05-16T23:30:38.891Z,101009.51
2019-05-16T23:33:09.848Z,101010.09
2019-05-16T23:35:43.205Z,101013.33
2019-05-16T23:38:19.461Z,101015.85
2019-05-16T23:40:46.913Z,101015.47
2019-05-16T23:43:17.571Z,101014.97
2019-05-16T23:45:48.527Z,101014.88
2019-05-16T23:48:19.483Z,101022.88
2019-05-16T23:50:50.342Z,101018.55
2019-05-16T23:53:21.196Z,101026.86
2019-05-16T23:55:51.953Z,101026.41
2019-05-16T23:58:22.658Z,101032.80
